Time;durP1;ratioP1;P1;durP2;ratioP2;P2;SDS_P1;SDS_P2;PMS_P1;PMS_P2;Temp;Humidity;BMP_temperature;BMP_pressure;BME280_temperature;BME280_humidity;BME280_pressure;Samples;Min_cycle;Max_cycle;Signal;HPM_P1;HPM_P2
2022/01/20 00:04:13;;;;;;;;;;;;;;;-1.59;100.00;100383.84;4994080;28;19918;-88
2022/01/20 00:25:55;;;;;;;;;;;;;;;-1.67;100.00;100371.19;4998725;28;19940;-88
2022/01/20 00:28:27;;;;;;;;;;;;;;;-1.66;100.00;100370.06;4981756;28;19925;-88
2022/01/20 00:31:04;;;;;;;;;;;;;;;-1.70;100.00;100372.69;4981493;28;20323;-87
2022/01/20 00:38:33;;;;;;;;;;;;;;;-1.78;100.00;100370.91;5015027;28;19917;-88
2022/01/20 00:40:58;;;;;;;;;;;;;;;-1.79;100.00;100379.38;4987763;28;19918;-88
2022/01/20 00:43:24;;;;;;;;;;;;;;;-1.83;100.00;100383.94;4994446;28;19925;-87
2022/01/20 00:45:49;;;;;;;;;;;;;;;-1.88;100.00;100383.03;4980358;28;19923;-88
2022/01/20 00:48:18;;;;;;;;;;;;;;;-1.85;100.00;100386.19;4997225;28;19921;-88
2022/01/20 00:50:43;;;;;;;;;;;;;;;-1.90;100.00;100379.88;4996660;28;19913;-88
2022/01/20 00:53:09;;;;;;;;;;;;;;;-1.96;100.00;100386.69;4996977;28;19917;-87
2022/01/20 00:55:34;;;;;;;;;;;;;;;-2.02;100.00;100377.19;4996934;28;20275;-87
2022/01/20 00:57:59;;;;;;;;;;;;;;;-2.04;100.00;100384.13;4996837;28;20310;-88
2022/01/20 01:00:27;;;;;;;;;;;;;;;-2.05;100.00;100388.75;4996912;28;19992;-88
2022/01/20 01:02:52;;;;;;;;;;;;;;;-2.04;100.00;100390.34;4996168;28;20016;-88
2022/01/20 01:05:17;;;;;;;;;;;;;;;-2.06;100.00;100387.16;4996052;28;20391;-88
2022/01/20 01:07:48;;;;;;;;;;;;;;;-2.03;100.00;100386.50;4996061;28;19917;-88
2022/01/20 01:10:21;;;;;;;;;;;;;;;-1.97;100.00;100393.25;4980557;28;20373;-88
2022/01/20 01:12:55;;;;;;;;;;;;;;;-1.99;100.00;100398.28;4979752;28;19918;-88
2022/01/20 01:15:27;;;;;;;;;;;;;;;-2.04;100.00;100393.06;4997097;28;19967;-88
2022/01/20 01:23:21;;;;;;;;;;;;;;;-2.22;100.00;100380.88;4981914;28;19924;-88
2022/01/20 01:25:47;;;;;;;;;;;;;;;-2.23;100.00;100381.22;4977987;28;20293;-87
2022/01/20 01:28:12;;;;;;;;;;;;;;;-2.20;100.00;100383.25;4995532;28;19921;-88
2022/01/20 01:31:14;;;;;;;;;;;;;;;-2.23;100.00;100379.31;4995908;28;20012;-87
2022/01/20 01:33:38;;;;;;;;;;;;;;;-2.30;100.00;100376.34;4983749;28;19922;-88
2022/01/20 01:36:05;;;;;;;;;;;;;;;-2.33;100.00;100387.13;4979196;28;20020;-88
2022/01/20 01:38:37;;;;;;;;;;;;;;;-2.31;100.00;100374.78;4977489;28;20057;-88
2022/01/20 01:41:09;;;;;;;;;;;;;;;-2.32;100.00;100378.63;4996838;28;20443;-87
2022/01/20 01:43:36;;;;;;;;;;;;;;;-2.32;100.00;100372.41;4980314;28;19943;-87
2022/01/20 01:46:02;;;;;;;;;;;;;;;-2.39;100.00;100360.19;4995020;28;19921;-88
2022/01/20 01:48:31;;;;;;;;;;;;;;;-2.41;100.00;100369.81;4980050;28;19922;-88
2022/01/20 01:50:59;;;;;;;;;;;;;;;-2.44;100.00;100370.50;4978758;28;19928;-87
2022/01/20 01:53:25;;;;;;;;;;;;;;;-2.48;100.00;100364.97;4995476;28;19924;-87
2022/01/20 01:55:50;;;;;;;;;;;;;;;-2.51;100.00;100362.16;4995294;28;19921;-87
2022/01/20 01:58:15;;;;;;;;;;;;;;;-2.54;100.00;100357.38;4995333;28;19988;-87
2022/01/20 02:03:56;;;;;;;;;;;;;;;-2.55;100.00;100364.75;5029111;22;19922;-87
2022/01/20 02:20:17;;;;;;;;;;;;;;;-2.76;100.00;100339.66;4979296;28;19923;-87
2022/01/20 02:22:55;;;;;;;;;;;;;;;-2.82;100.00;100339.06;4980999;28;19942;-87
2022/01/20 02:25:30;;;;;;;;;;;;;;;-2.83;100.00;100336.72;4979479;28;19923;-87
2022/01/20 02:27:57;;;;;;;;;;;;;;;-2.85;100.00;100345.19;4978952;28;20027;-87
2022/01/20 02:30:25;;;;;;;;;;;;;;;-2.86;100.00;100340.88;4978265;28;19924;-87
2022/01/20 02:32:55;;;;;;;;;;;;;;;-2.90;100.00;100337.25;4995532;28;19921;-87
2022/01/20 02:35:21;;;;;;;;;;;;;;;-2.87;100.00;100328.44;4995065;28;19928;-89
2022/01/20 02:37:49;;;;;;;;;;;;;;;-2.86;100.00;100327.31;4978348;28;20345;-93
2022/01/20 02:44:51;;;;;;;;;;;;;;;-2.80;100.00;100332.50;4995775;28;19921;-87
2022/01/20 02:45:44;;;;;;;;;;;;;;;-2.91;100.00;100316.66;4996528;28;19921;-87
2022/01/20 02:48:09;;;;;;;;;;;;;;;-2.90;100.00;100304.69;4979278;28;19918;-88
2022/01/20 02:50:35;;;;;;;;;;;;;;;-2.89;100.00;100316.34;4978836;28;19917;-87
2022/01/20 02:53:00;;;;;;;;;;;;;;;-2.86;100.00;100311.03;4994471;28;19925;-87
2022/01/20 02:55:26;;;;;;;;;;;;;;;-2.87;100.00;100298.56;4962495;28;19928;-88
2022/01/20 02:57:52;;;;;;;;;;;;;;;-2.84;100.00;100303.34;4979339;28;19920;-88
2022/01/20 03:00:17;;;;;;;;;;;;;;;-2.83;100.00;100302.19;4978374;28;19956;-87
2022/01/20 03:02:43;;;;;;;;;;;;;;;-2.76;100.00;100298.13;4974650;28;19928;-87
2022/01/20 03:05:11;;;;;;;;;;;;;;;-2.72;100.00;100297.09;4974791;28;19924;-87
2022/01/20 03:07:37;;;;;;;;;;;;;;;-2.67;100.00;100312.38;4959021;28;19917;-88
2022/01/20 03:10:04;;;;;;;;;;;;;;;-2.62;100.00;100283.03;4958580;28;19917;-88
2022/01/20 03:12:29;;;;;;;;;;;;;;;-2.62;100.00;100293.91;4974886;28;19922;-87
2022/01/20 03:14:54;;;;;;;;;;;;;;;-2.60;100.00;100285.44;4979193;28;19924;-86
2022/01/20 03:17:20;;;;;;;;;;;;;;;-2.55;100.00;100272.41;4991904;28;19922;-94
2022/01/20 03:19:46;;;;;;;;;;;;;;;-2.46;100.00;100264.91;4976054;28;19917;-87
2022/01/20 03:22:11;;;;;;;;;;;;;;;-2.44;100.00;100270.00;4991037;28;19914;-87
2022/01/20 03:24:37;;;;;;;;;;;;;;;-2.41;100.00;100272.00;4990805;28;19924;-87
2022/01/20 03:27:02;;;;;;;;;;;;;;;-2.39;100.00;100280.63;4974916;28;19918;-87
2022/01/20 03:29:27;;;;;;;;;;;;;;;-2.42;100.00;100292.16;4974237;28;20402;-87
2022/01/20 03:31:53;;;;;;;;;;;;;;;-2.48;100.00;100286.19;4961897;28;19925;-87
2022/01/20 03:34:21;;;;;;;;;;;;;;;-2.46;100.00;100291.25;4990711;28;19921;-87
2022/01/20 03:36:50;;;;;;;;;;;;;;;-2.46;100.00;100289.34;4975069;28;20271;-87
2022/01/20 03:39:19;;;;;;;;;;;;;;;-2.50;100.00;100295.78;4976179;28;19922;-94
2022/01/20 03:41:44;;;;;;;;;;;;;;;-2.48;100.00;100298.97;4993045;28;19918;-94
2022/01/20 03:44:18;;;;;;;;;;;;;;;-2.46;100.00;100299.41;4987241;28;19924;-94
2022/01/20 03:46:44;;;;;;;;;;;;;;;-2.52;100.00;100309.75;4984598;28;20016;-94
2022/01/20 03:49:24;;;;;;;;;;;;;;;-2.66;100.00;100308.50;4976092;28;19921;-94
2022/01/20 03:51:50;;;;;;;;;;;;;;;-2.69;100.00;100303.75;4962681;28;19918;-93
2022/01/20 03:54:15;;;;;;;;;;;;;;;-2.68;100.00;100317.00;4992769;28;19918;-93
2022/01/20 03:57:01;;;;;;;;;;;;;;;-2.71;100.00;100312.28;4991791;28;20415;-87
2022/01/20 03:59:49;;;;;;;;;;;;;;;-2.71;100.00;100311.47;4950302;28;19917;-87
2022/01/20 04:02:20;;;;;;;;;;;;;;;-2.74;100.00;100314.84;4972838;28;19989;-86
2022/01/20 04:04:52;;;;;;;;;;;;;;;-2.78;100.00;100313.94;4990507;28;20008;-87
2022/01/20 04:07:21;;;;;;;;;;;;;;;-2.83;100.00;100306.84;4957987;28;20061;-87
